Time;durP1;ratioP1;P1;durP2;ratioP2;P2;SDS_P1;SDS_P2;PMS_P1;PMS_P2;Temp;Humidity;BMP_temperature;BMP_pressure;BME280_temperature;BME280_humidity;BME280_pressure;Samples;Min_cycle;Max_cycle;Signal;HPM_P1;HPM_P2
2021/12/03 00:02:05;;;;;;;1.50;0.50;;;1.90;99.90;;;;;;5019394;28;20034;-73
2021/12/03 00:04:31;;;;;;;3.50;0.53;;;1.90;99.90;;;;;;4997780;28;20072;-73
2021/12/03 00:06:59;;;;;;;7.33;1.27;;;1.90;99.90;;;;;;5006055;28;20232;-72
2021/12/03 00:09:25;;;;;;;3.97;0.60;;;2.00;99.90;;;;;;5015222;28;20247;-75
2021/12/03 00:11:50;;;;;;;4.53;0.93;;;2.00;99.90;;;;;;5018876;28;20033;-73
2021/12/03 00:14:16;;;;;;;3.27;0.80;;;2.10;99.90;;;;;;5012131;28;20525;-73
2021/12/03 00:16:42;;;;;;;2.10;0.63;;;2.10;99.90;;;;;;5019470;28;20037;-73
2021/12/03 00:19:07;;;;;;;4.13;0.70;;;2.10;99.90;;;;;;5017443;28;20037;-72
2021/12/03 00:21:33;;;;;;;2.10;1.20;;;2.10;99.90;;;;;;4999533;28;20576;-72
2021/12/03 00:24:01;;;;;;;11.90;0.83;;;2.20;99.90;;;;;;4994198;28;20076;-72
2021/12/03 00:26:27;;;;;;;3.45;0.45;;;2.20;99.90;;;;;;5005330;28;20045;-72
2021/12/03 00:28:53;;;;;;;2.67;0.67;;;2.30;99.90;;;;;;4997971;28;20579;-72
2021/12/03 00:31:19;;;;;;;3.80;1.13;;;2.20;99.90;;;;;;4995235;28;20041;-73
2021/12/03 00:33:45;;;;;;;2.13;0.63;;;2.30;99.90;;;;;;5020131;28;20084;-73
2021/12/03 00:36:11;;;;;;;4.43;0.60;;;2.30;99.90;;;;;;5001760;28;20478;-72
2021/12/03 00:38:47;;;;;;;1.95;0.52;;;2.40;99.90;;;;;;4998696;28;20037;-72
2021/12/03 00:41:18;;;;;;;5.72;0.80;;;2.40;99.90;;;;;;5018874;28;20042;-72
2021/12/03 00:43:46;;;;;;;4.10;1.02;;;2.50;99.90;;;;;;5014931;28;20500;-72
2021/12/03 00:46:14;;;;;;;3.10;0.50;;;2.50;99.90;;;;;;5013932;28;20065;-72
2021/12/03 00:48:40;;;;;;;2.47;0.68;;;2.60;99.90;;;;;;4991782;28;20041;-72
2021/12/03 00:51:07;;;;;;;4.00;0.77;;;2.60;99.90;;;;;;5016480;28;20429;-72
2021/12/03 00:53:33;;;;;;;10.73;0.90;;;2.60;99.90;;;;;;5007552;28;20049;-73
2021/12/03 00:55:59;;;;;;;2.30;0.57;;;2.60;99.90;;;;;;5018921;28;20029;-72
2021/12/03 00:58:24;;;;;;;8.63;1.10;;;2.60;99.90;;;;;;5017905;28;20533;-72
2021/12/03 01:00:50;;;;;;;1.70;0.70;;;2.60;99.90;;;;;;5019357;28;20049;-73
2021/12/03 01:03:16;;;;;;;3.60;0.60;;;2.60;99.90;;;;;;5020211;28;20529;-73
2021/12/03 01:05:42;;;;;;;2.80;0.67;;;2.60;99.90;;;;;;5019936;28;20376;-72
2021/12/03 01:08:07;;;;;;;5.40;0.40;;;2.50;99.90;;;;;;5017977;28;20037;-72
2021/12/03 01:10:35;;;;;;;8.23;0.60;;;2.60;99.90;;;;;;5021810;28;20488;-72
2021/12/03 01:13:01;;;;;;;2.13;0.55;;;2.50;99.90;;;;;;4998978;28;20057;-72
2021/12/03 01:15:31;;;;;;;2.43;0.87;;;2.50;99.90;;;;;;4995845;28;20045;-72
2021/12/03 01:17:57;;;;;;;3.60;1.80;;;2.50;99.90;;;;;;4999395;28;20050;-72
2021/12/03 01:20:24;;;;;;;3.00;0.90;;;2.60;99.90;;;;;;4994299;28;20048;-72
2021/12/03 01:22:53;;;;;;;6.65;0.90;;;2.50;99.90;;;;;;5015518;28;20341;-72
2021/12/03 01:25:21;;;;;;;2.70;0.70;;;2.50;99.90;;;;;;5000922;28;20038;-72
2021/12/03 01:27:47;;;;;;;2.10;0.55;;;2.60;99.90;;;;;;5012941;28;20052;-72
2021/12/03 01:30:17;;;;;;;3.10;0.77;;;2.50;99.90;;;;;;5013278;28;20056;-72
2021/12/03 01:32:43;;;;;;;1.02;0.50;;;2.60;99.90;;;;;;4998699;28;20666;-72
2021/12/03 01:35:11;;;;;;;3.35;1.05;;;2.50;99.90;;;;;;5015405;28;20049;-72
2021/12/03 01:37:37;;;;;;;3.72;0.40;;;2.60;99.90;;;;;;5019521;28;20454;-75
2021/12/03 01:40:06;;;;;;;1.55;0.57;;;2.60;99.90;;;;;;4994305;28;20132;-74
2021/12/03 01:42:31;;;;;;;0.98;0.40;;;2.60;99.90;;;;;;4992376;28;20042;-72
2021/12/03 01:44:57;;;;;;;3.97;0.87;;;2.60;99.90;;;;;;4993884;28;20048;-73
2021/12/03 01:47:22;;;;;;;2.03;0.60;;;2.60;99.90;;;;;;5006695;28;20467;-73
2021/12/03 01:49:48;;;;;;;2.20;0.73;;;2.60;99.90;;;;;;5016873;28;20124;-77
2021/12/03 01:52:14;;;;;;;1.70;0.60;;;2.60;99.90;;;;;;5018384;28;20034;-73
2021/12/03 01:54:40;;;;;;;5.33;0.63;;;2.60;99.90;;;;;;4997854;28;20296;-72
2021/12/03 01:57:05;;;;;;;3.90;0.70;;;2.60;99.90;;;;;;5012203;28;20205;-73
2021/12/03 01:59:31;;;;;;;4.30;1.10;;;2.60;99.90;;;;;;5014471;28;20037;-73
2021/12/03 02:01:58;;;;;;;2.30;1.07;;;2.60;99.90;;;;;;5019116;28;20106;-72
2021/12/03 02:04:23;;;;;;;;;;;2.50;99.90;;;;;;5004027;28;20083;-73
2021/12/03 02:06:49;;;;;;;9.68;1.27;;;2.60;99.90;;;;;;5019975;28;20216;-73
2021/12/03 02:09:14;;;;;;;1.87;0.70;;;2.50;99.90;;;;;;5017487;28;20038;-72
2021/12/03 02:11:41;;;;;;;3.80;0.97;;;2.50;99.90;;;;;;5009609;28;20391;-72
2021/12/03 02:14:06;;;;;;;2.28;0.55;;;2.50;99.90;;;;;;5021830;28;20131;-73
2021/12/03 02:16:32;;;;;;;3.37;0.87;;;2.50;99.90;;;;;;4999232;28;20486;-73
2021/12/03 02:18:57;;;;;;;6.00;1.20;;;2.50;99.90;;;;;;5006645;28;20042;-72
2021/12/03 02:21:24;;;;;;;4.03;1.00;;;2.50;99.90;;;;;;5022075;28;20041;-73
2021/12/03 02:23:51;;;;;;;4.63;0.95;;;2.50;99.90;;;;;;5024509;28;20415;-73
2021/12/03 02:26:18;;;;;;;4.03;1.20;;;2.50;99.90;;;;;;5024377;28;20312;-73
2021/12/03 02:28:47;;;;;;;3.72;1.00;;;2.50;99.90;;;;;;5006695;28;20560;-73
2021/12/03 02:31:15;;;;;;;2.50;0.90;;;2.50;99.90;;;;;;5021769;28;20056;-72
2021/12/03 02:33:40;;;;;;;2.45;0.70;;;2.50;99.90;;;;;;4992390;28;20049;-72
2021/12/03 02:36:08;;;;;;;2.97;0.68;;;2.50;99.90;;;;;;5025237;28;20067;-73
2021/12/03 02:38:33;;;;;;;4.55;0.85;;;2.40;99.90;;;;;;5021206;28;20061;-73
2021/12/03 02:41:02;;;;;;;3.90;1.20;;;2.40;99.90;;;;;;5000956;28;20153;-72
2021/12/03 02:43:30;;;;;;;3.22;1.27;;;2.50;99.90;;;;;;5014576;28;20045;-72
2021/12/03 02:45:57;;;;;;;3.67;0.90;;;2.40;99.90;;;;;;4999756;28;20041;-72
2021/12/03 02:48:26;;;;;;;2.83;1.15;;;2.40;99.90;;;;;;5018137;28;20426;-72
2021/12/03 02:50:52;;;;;;;7.90;1.27;;;2.50;99.90;;;;;;5008677;28;20043;-72
2021/12/03 02:53:18;;;;;;;;;;;2.40;99.90;;;;;;5015249;28;20080;-72
2021/12/03 02:55:44;;;;;;;8.55;1.10;;;2.40;99.90;;;;;;4980200;28;19920;-73
2021/12/03 02:58:12;;;;;;;4.68;1.48;;;2.40;99.90;;;;;;5005995;28;20053;-73
2021/12/03 03:00:39;;;;;;;2.67;0.77;;;2.40;99.90;;;;;;4988324;28;20071;-72
2021/12/03 03:03:05;;;;;;;5.63;1.20;;;2.40;99.90;;;;;;5005530;28;20056;-72
2021/12/03 03:05:31;;;;;;;3.37;0.87;;;2.50;99.90;;;;;;5018842;28;20047;-73
2021/12/03 03:07:56;;;;;;;8.27;1.10;;;2.40;99.90;;;;;;5027433;28;20117;-72
2021/12/03 03:10:28;;;;;;;5.13;1.80;;;2.50;99.90;;;;;;5014043;28;20407;-72
2021/12/03 03:12:55;;;;;;;3.78;1.08;;;2.50;99.90;;;;;;5005321;28;20419;-73
2021/12/03 03:15:21;;;;;;;1.67;1.13;;;2.50;99.90;;;;;;5016791;28;20443;-72
2021/12/03 03:17:47;;;;;;;;;;;2.60;99.90;;;;;;4998788;28;20038;-73
2021/12/03 03:20:14;;;;;;;3.70;0.98;;;2.50;99.90;;;;;;5015682;28;20002;-73
2021/12/03 03:22:41;;;;;;;5.78;2.10;;;2.50;99.90;;;;;;5022257;28;20046;-72
2021/12/03 03:25:11;;;;;;;4.32;1.40;;;2.60;99.90;;;;;;4995258;28;20069;-72
2021/12/03 03:27:37;;;;;;;8.13;1.48;;;2.50;99.90;;;;;;5011379;28;20041;-72
2021/12/03 03:30:06;;;;;;;6.35;2.28;;;2.50;99.90;;;;;;4995740;28;20053;-72
2021/12/03 03:32:32;;;;;;;3.30;1.90;;;2.50;99.90;;;;;;5006728;28;20555;-72
2021/12/03 03:34:57;;;;;;;11.05;2.80;;;2.60;99.90;;;;;;5019968;28;20033;-73
2021/12/03 03:37:23;;;;;;;10.20;3.47;;;2.50;99.90;;;;;;4998210;28;20054;-72
2021/12/03 03:39:49;;;;;;;6.13;3.53;;;2.50;99.90;;;;;;5017784;28;20048;-72
2021/12/03 03:42:15;;;;;;;8.87;4.00;;;2.50;99.90;;;;;;4999886;28;20481;-73
2021/12/03 03:44:44;;;;;;;8.23;4.20;;;2.50;99.90;;;;;;4996260;28;20081;-72
2021/12/03 03:47:10;;;;;;;11.05;5.07;;;2.40;99.90;;;;;;5017536;28;20295;-72
2021/12/03 03:49:37;;;;;;;7.63;4.88;;;2.50;99.90;;;;;;5016996;28;20459;-72
2021/12/03 03:52:03;;;;;;;9.57;5.28;;;2.40;99.90;;;;;;4974861;28;20142;-73
2021/12/03 03:54:29;;;;;;;9.82;6.13;;;2.50;99.90;;;;;;5015044;28;20127;-73
2021/12/03 03:56:59;;;;;;;11.32;6.40;;;2.50;99.90;;;;;;5000568;28;20045;-73
2021/12/03 03:59:25;;;;;;;13.30;6.20;;;2.40;99.90;;;;;;5015517;28;20132;-73
2021/12/03 04:01:52;;;;;;;10.95;6.60;;;2.50;99.90;;;;;;4996488;28;20503;-73
2021/12/03 04:04:19;;;;;;;11.70;6.60;;;2.50;99.90;;;;;;4993384;28;20056;-73
2021/12/03 04:06:45;;;;;;;15.55;7.70;;;2.50;99.90;;;;;;5014870;28;20471;-73
2021/12/03 04:09:12;;;;;;;14.60;7.63;;;2.50;99.90;;;;;;5012461;28;20052;-73
2021/12/03 04:11:37;;;;;;;13.57;8.07;;;2.50;99.90;;;;;;5022410;28;20449;-73
2021/12/03 04:14:04;;;;;;;18.67;8.37;;;2.50;99.90;;;;;;5024036;28;20041;-73
2021/12/03 04:16:31;;;;;;;24.40;9.25;;;2.50;99.90;;;;;;5024590;28;20034;-72
2021/12/03 04:18:57;;;;;;;18.20;8.85;;;2.50;99.90;;;;;;5012166;28;20346;-73
2021/12/03 04:21:23;;;;;;;17.10;7.45;;;2.50;99.90;;;;;;5014441;28;20045;-73
2021/12/03 04:23:49;;;;;;;17.67;8.85;;;2.50;99.90;;;;;;4988084;28;20398;-72
2021/12/03 04:26:15;;;;;;;17.33;8.87;;;2.40;99.90;;;;;;4997331;28;20025;-73
2021/12/03 04:28:40;;;;;;;17.70;9.13;;;2.50;99.90;;;;;;5014401;28;20088;-73
2021/12/03 04:31:06;;;;;;;15.77;9.23;;;2.50;99.90;;;;;;4988825;28;20045;-73
2021/12/03 04:33:32;;;;;;;16.92;8.55;;;2.50;99.90;;;;;;5014179;28;20069;-73
2021/12/03 04:35:58;;;;;;;18.07;9.40;;;2.40;99.90;;;;;;5014174;28;20047;-73
2021/12/03 04:38:23;;;;;;;15.43;9.67;;;2.40;99.90;;;;;;5022451;28;20540;-73
2021/12/03 04:40:49;;;;;;;18.10;8.80;;;2.40;99.90;;;;;;5022996;28;20158;-73
2021/12/03 04:43:15;;;;;;;13.33;8.90;;;2.40;99.90;;;;;;5010562;28;20034;-73
2021/12/03 04:45:41;;;;;;;17.92;9.45;;;2.40;99.90;;;;;;4981122;28;20069;-73
2021/12/03 04:48:07;;;;;;;15.17;8.03;;;2.40;99.90;;;;;;4983814;28;20103;-73
2021/12/03 04:50:38;;;;;;;16.42;8.63;;;2.40;99.90;;;;;;5003342;28;20049;-73
2021/12/03 04:53:07;;;;;;;14.15;8.45;;;2.40;99.90;;;;;;4998273;28;20049;-73
2021/12/03 04:55:34;;;;;;;14.63;8.27;;;2.40;99.90;;;;;;4991816;28;20045;-73
2021/12/03 04:58:00;;;;;;;17.45;9.63;;;2.40;99.90;;;;;;4996137;28;20061;-73
2021/12/03 05:00:33;;;;;;;16.70;10.67;;;2.40;99.90;;;;;;5017502;28;20505;-73
2021/12/03 05:03:00;;;;;;;16.52;10.13;;;2.30;99.90;;;;;;5000324;28;20037;-73
2021/12/03 05:05:31;;;;;;;17.95;8.95;;;2.40;99.90;;;;;;4985630;28;20076;-74
2021/12/03 05:07:57;;;;;;;16.25;9.15;;;2.40;99.90;;;;;;5021814;28;20048;-73
2021/12/03 05:10:25;;;;;;;16.20;8.90;;;2.40;99.90;;;;;;4984119;28;20469;-73
2021/12/03 05:13:01;;;;;;;14.80;8.82;;;2.40;99.90;;;;;;4995856;28;20049;-73
2021/12/03 05:15:28;;;;;;;14.52;8.95;;;2.40;99.90;;;;;;4991982;28;20536;-73
2021/12/03 05:17:53;;;;;;;13.88;8.73;;;2.40;99.90;;;;;;4977914;28;20046;-73
2021/12/03 05:20:19;;;;;;;13.17;8.73;;;2.40;99.90;;;;;;4995892;28;20337;-73
2021/12/03 05:22:45;;;;;;;19.77;9.05;;;2.40;99.90;;;;;;5019568;28;20033;-73
2021/12/03 05:25:10;;;;;;;18.03;9.17;;;2.30;99.90;;;;;;5014371;28;20063;-73
2021/12/03 05:27:38;;;;;;;17.20;9.43;;;2.30;99.90;;;;;;5014621;28;20110;-73
2021/12/03 05:30:06;;;;;;;15.15;9.20;;;2.30;99.90;;;;;;5014484;28;20531;-73
2021/12/03 05:32:31;;;;;;;14.25;8.45;;;2.30;99.90;;;;;;5015492;28;20122;-73
2021/12/03 05:34:57;;;;;;;17.63;9.20;;;2.30;99.90;;;;;;5017361;28;20084;-70
2021/12/03 05:37:22;;;;;;;14.13;8.87;;;2.30;99.90;;;;;;4984412;28;20045;-70
2021/12/03 05:39:48;;;;;;;14.63;8.90;;;2.30;99.90;;;;;;5014747;28;20230;-70
2021/12/03 05:42:13;;;;;;;16.10;8.77;;;2.30;99.90;;;;;;4998379;28;20403;-70
2021/12/03 05:44:39;;;;;;;16.20;8.57;;;2.30;99.90;;;;;;5018342;28;20041;-70
2021/12/03 05:47:05;;;;;;;12.37;7.97;;;2.30;99.90;;;;;;4996488;28;20065;-70
2021/12/03 05:49:33;;;;;;;20.23;10.07;;;2.30;99.90;;;;;;5018919;28;20208;-70
2021/12/03 05:51:58;;;;;;;14.18;8.88;;;2.30;99.90;;;;;;5015484;28;20041;-70
2021/12/03 05:54:27;;;;;;;21.40;8.53;;;2.30;99.90;;;;;;4997967;28;20168;-70
2021/12/03 05:56:52;;;;;;;17.63;9.43;;;2.30;99.90;;;;;;5017788;28;20053;-70
2021/12/03 05:59:18;;;;;;;13.17;8.77;;;2.30;99.90;;;;;;5018827;28;20033;-70
2021/12/03 06:01:44;;;;;;;16.13;9.57;;;2.30;99.90;;;;;;4996581;28;20108;-71
2021/12/03 06:04:12;;;;;;;14.03;9.23;;;2.40;99.90;;;;;;5022017;28;20172;-70
2021/12/03 06:06:38;;;;;;;20.23;9.65;;;2.40;99.90;;;;;;5001987;28;20087;-70
2021/12/03 06:09:08;;;;;;;18.17;9.52;;;2.40;99.90;;;;;;4989185;28;20391;-70
2021/12/03 06:11:34;;;;;;;19.80;10.10;;;2.50;99.90;;;;;;5017116;28;20039;-70
2021/12/03 06:13:59;;;;;;;21.00;9.77;;;2.50;99.90;;;;;;5012781;28;20050;-71
2021/12/03 06:16:25;;;;;;;15.53;9.67;;;2.50;99.90;;;;;;5016877;28;20080;-71
2021/12/03 06:18:51;;;;;;;15.50;9.23;;;2.50;99.90;;;;;;5023429;28;20391;-70
2021/12/03 06:21:17;;;;;;;19.47;11.13;;;2.60;99.90;;;;;;4999509;28;20043;-71
2021/12/03 06:23:42;;;;;;;17.57;9.67;;;2.60;99.90;;;;;;5021463;28;20068;-70
2021/12/03 06:26:09;;;;;;;13.93;8.98;;;2.60;99.90;;;;;;4993494;28;20073;-70
2021/12/03 06:28:39;;;;;;;;;;;2.70;99.90;;;;;;4999735;28;20092;-70
2021/12/03 06:31:04;;;;;;;16.75;8.27;;;2.70;99.90;;;;;;5003651;28;19928;-70
2021/12/03 06:33:30;;;;;;;22.70;9.23;;;2.80;99.90;;;;;;5017985;28;20033;-70
2021/12/03 06:35:56;;;;;;;13.77;8.40;;;2.80;99.90;;;;;;5000512;28;20212;-70
2021/12/03 06:38:22;;;;;;;15.97;8.73;;;2.80;99.90;;;;;;4995316;28;20140;-70
2021/12/03 06:40:49;;;;;;;16.85;9.57;;;2.90;99.90;;;;;;4998914;28;20048;-70
2021/12/03 06:43:15;;;;;;;15.48;8.48;;;2.90;99.90;;;;;;5014175;28;20453;-70
2021/12/03 06:45:41;;;;;;;14.80;8.67;;;2.90;99.90;;;;;;5013336;28;20033;-70
2021/12/03 06:48:07;;;;;;;16.73;7.88;;;3.00;99.90;;;;;;5021074;28;20291;-70
2021/12/03 06:50:34;;;;;;;18.30;8.30;;;3.00;99.90;;;;;;5025774;28;20045;-71
2021/12/03 06:53:09;;;;;;;14.25;7.63;;;3.00;99.90;;;;;;5020684;28;20041;-70
2021/12/03 06:55:47;;;;;;;16.77;9.00;;;3.00;99.90;;;;;;5003311;28;20042;-70
2021/12/03 06:58:14;;;;;;;14.98;7.38;;;3.00;99.90;;;;;;5020449;28;20034;-70
2021/12/03 07:00:40;;;;;;;10.90;6.85;;;3.00;99.90;;;;;;5007640;28;20037;-70
2021/12/03 07:03:06;;;;;;;22.77;7.63;;;3.00;99.90;;;;;;4987260;28;20264;-70
2021/12/03 07:05:31;;;;;;;12.47;6.77;;;3.00;99.90;;;;;;4988062;28;20057;-70
2021/12/03 07:07:57;;;;;;;11.33;5.80;;;3.10;99.90;;;;;;5017342;28;20048;-70
2021/12/03 07:10:23;;;;;;;8.27;5.20;;;3.10;99.90;;;;;;5021607;28;20083;-69
2021/12/03 07:12:48;;;;;;;13.73;4.47;;;3.10;99.90;;;;;;5013279;28;20247;-70
2021/12/03 07:15:15;;;;;;;10.05;5.07;;;3.10;99.90;;;;;;5023884;28;20414;-71
2021/12/03 07:17:40;;;;;;;11.32;4.32;;;3.20;99.90;;;;;;5018269;28;20453;-70
2021/12/03 07:20:09;;;;;;;10.87;4.27;;;3.20;99.90;;;;;;4998257;28;20133;-71
2021/12/03 07:22:35;;;;;;;8.88;4.60;;;3.20;99.90;;;;;;4998567;28;20057;-70
2021/12/03 07:25:02;;;;;;;7.00;3.95;;;3.10;99.90;;;;;;5017884;28;20495;-70
2021/12/03 07:27:27;;;;;;;7.70;3.40;;;3.20;99.90;;;;;;5018941;28;20029;-70
2021/12/03 07:29:53;;;;;;;13.73;3.50;;;3.20;99.90;;;;;;5003545;28;20056;-70
2021/12/03 07:32:21;;;;;;;10.40;3.83;;;3.20;99.90;;;;;;5003772;28;20034;-70
2021/12/03 07:34:48;;;;;;;5.93;3.28;;;3.20;99.90;;;;;;5017853;28;20037;-70
2021/12/03 07:37:14;;;;;;;11.65;3.67;;;3.20;99.90;;;;;;5018849;28;20041;-70
2021/12/03 07:39:40;;;;;;;7.75;3.22;;;3.20;99.90;;;;;;5001059;28;20224;-70
2021/12/03 07:42:06;;;;;;;9.00;3.17;;;3.20;99.90;;;;;;5014930;28;20576;-70
2021/12/03 07:44:32;;;;;;;6.13;3.00;;;3.30;99.90;;;;;;5011513;28;20038;-70
2021/12/03 07:46:59;;;;;;;8.65;3.55;;;3.30;99.90;;;;;;4988869;28;20511;-70
2021/12/03 07:49:26;;;;;;;7.68;3.50;;;3.30;99.90;;;;;;5013407;28;20042;-70
2021/12/03 07:51:52;;;;;;;11.20;3.53;;;3.30;99.90;;;;;;5019932;28;20448;-70
2021/12/03 07:54:18;;;;;;;4.85;2.97;;;3.30;99.90;;;;;;5018846;28;20041;-70
2021/12/03 07:56:45;;;;;;;9.35;3.17;;;3.30;99.90;;;;;;5017858;28;20073;-70
2021/12/03 07:59:10;;;;;;;;;;;3.30;99.90;;;;;;4997007;28;20041;-70
2021/12/03 08:01:36;;;;;;;7.25;3.17;;;3.30;99.90;;;;;;4996201;28;19925;-71
2021/12/03 08:04:02;;;;;;;9.53;3.73;;;3.30;99.90;;;;;;5015539;28;20436;-70
2021/12/03 08:06:28;;;;;;;11.38;2.95;;;3.40;99.90;;;;;;5014508;28;20033;-71
2021/12/03 08:08:54;;;;;;;9.03;3.57;;;3.40;99.90;;;;;;5012853;28;20048;-70
2021/12/03 08:11:19;;;;;;;9.40;3.27;;;3.40;99.90;;;;;;5020396;28;20217;-70
2021/12/03 08:13:45;;;;;;;8.70;3.13;;;3.40;99.90;;;;;;5020170;28;20398;-71
2021/12/03 08:16:10;;;;;;;7.17;3.27;;;3.40;99.90;;;;;;4998358;28;20132;-70
2021/12/03 08:18:36;;;;;;;7.07;3.53;;;3.40;99.90;;;;;;4978145;28;20041;-72
2021/12/03 08:21:05;;;;;;;7.80;3.37;;;3.40;99.90;;;;;;4980154;28;20053;-72
2021/12/03 08:23:31;;;;;;;7.15;2.92;;;3.40;99.90;;;;;;5020271;28;20038;-72
2021/12/03 08:25:57;;;;;;;10.03;3.20;;;3.40;99.90;;;;;;5003262;28;20104;-72
2021/12/03 08:28:23;;;;;;;7.72;2.97;;;3.40;99.90;;;;;;5007604;28;20513;-72
2021/12/03 08:30:49;;;;;;;7.90;3.10;;;3.40;99.90;;;;;;5021930;28;20042;-73
2021/12/03 08:33:14;;;;;;;6.90;2.77;;;3.40;99.90;;;;;;5015781;28;20037;-72
2021/12/03 08:35:40;;;;;;;7.00;2.90;;;3.40;99.90;;;;;;4991154;28;20044;-72
2021/12/03 08:38:06;;;;;;;6.43;2.73;;;3.50;99.90;;;;;;5020658;28;20405;-72
2021/12/03 08:40:31;;;;;;;6.17;2.90;;;3.40;99.90;;;;;;5013880;28;20038;-72
2021/12/03 08:42:57;;;;;;;4.57;2.47;;;3.50;99.90;;;;;;5017718;28;20046;-72
2021/12/03 08:45:24;;;;;;;11.40;2.67;;;3.50;99.90;;;;;;5019149;28;20042;-72
2021/12/03 08:47:53;;;;;;;9.68;3.00;;;3.50;99.90;;;;;;5013525;28;20752;-72
2021/12/03 08:50:28;;;;;;;13.50;2.85;;;3.60;99.90;;;;;;5014002;28;20419;-73
2021/12/03 08:53:11;;;;;;;8.27;3.35;;;3.60;99.90;;;;;;4996458;28;20078;-73
2021/12/03 08:55:38;;;;;;;5.93;2.63;;;3.60;99.90;;;;;;5018573;28;20343;-73
2021/12/03 08:58:04;;;;;;;9.27;3.33;;;3.70;99.90;;;;;;5012186;28;20086;-73
2021/12/03 09:00:30;;;;;;;10.87;3.90;;;3.70;99.90;;;;;;5017508;28;20037;-78
2021/12/03 09:02:56;;;;;;;10.77;3.28;;;3.70;99.90;;;;;;4991516;28;20517;-76
2021/12/03 09:05:27;;;;;;;7.90;3.13;;;3.70;99.90;;;;;;4999869;28;20060;-73
2021/12/03 09:07:52;;;;;;;9.73;3.88;;;3.80;99.90;;;;;;4996619;28;20037;-78
2021/12/03 09:10:18;;;;;;;12.83;4.27;;;3.80;99.90;;;;;;5003788;28;20510;-78
2021/12/03 09:12:43;;;;;;;11.50;4.47;;;3.90;99.90;;;;;;4999932;28;20040;-74
2021/12/03 09:15:12;;;;;;;14.67;4.10;;;3.90;99.90;;;;;;5021990;28;20046;-73
2021/12/03 09:20:40;;;;;;;8.60;4.28;;;4.00;99.90;;;;;;5019460;28;20513;-77
2021/12/03 09:23:12;;;;;;;11.88;4.88;;;4.00;99.90;;;;;;4991960;28;20053;-72
2021/12/03 09:25:44;;;;;;;9.95;4.60;;;4.00;99.90;;;;;;5014042;28;20419;-72
2021/12/03 09:28:12;;;;;;;13.82;4.50;;;4.00;99.90;;;;;;5018075;28;20167;-73
2021/12/03 09:30:41;;;;;;;11.25;5.45;;;4.10;99.90;;;;;;4999331;28;20042;-72
2021/12/03 09:33:10;;;;;;;13.32;5.25;;;4.10;99.90;;;;;;4994628;28;20050;-72
2021/12/03 09:35:48;;;;;;;14.80;5.20;;;4.10;99.90;;;;;;5013763;28;20053;-72
2021/12/03 09:38:14;;;;;;;10.00;4.45;;;4.10;99.90;;;;;;5016171;28;20042;-72
2021/12/03 09:40:41;;;;;;;11.20;4.90;;;4.10;99.90;;;;;;4996018;28;20048;-72
2021/12/03 09:43:07;;;;;;;14.18;4.70;;;4.10;99.90;;;;;;5009194;28;20073;-72
2021/12/03 09:45:34;;;;;;;;;;;4.10;99.90;;;;;;5000988;28;20048;-72
2021/12/03 09:48:05;;;;;;;8.57;3.63;;;4.20;99.90;;;;;;5011845;28;19967;-72
2021/12/03 09:50:30;;;;;;;14.35;4.88;;;4.20;99.90;;;;;;5016360;28;20080;-72
2021/12/03 09:55:51;;;;;;;14.75;4.68;;;4.20;99.90;;;;;;4990962;28;20449;-78
2021/12/03 10:01:08;;;;;;;11.73;4.18;;;4.30;99.90;;;;;;4989526;28;21280;-72
2021/12/03 10:03:44;;;;;;;13.25;4.55;;;4.30;99.90;;;;;;4986165;28;20179;-72
2021/12/03 10:11:49;;;;;;;14.77;4.35;;;4.40;99.90;;;;;;5012545;28;20053;-71
2021/12/03 10:20:18;;;;;;;12.30;4.55;;;4.40;99.90;;;;;;5002503;28;20128;-73
2021/12/03 10:38:48;;;;;;;21.10;5.18;;;4.40;99.90;;;;;;4994827;28;20045;-73
2021/12/03 10:47:24;;;;;;;7.82;3.78;;;4.50;99.90;;;;;;5023844;28;20457;-75
2021/12/03 10:59:50;;;;;;;10.55;3.85;;;4.40;99.90;;;;;;5015170;28;20495;-78
2021/12/03 11:19:12;;;;;;;9.57;3.58;;;4.30;99.90;;;;;;5007357;28;20045;-71
2021/12/03 11:30:03;;;;;;;9.50;3.08;;;4.30;99.90;;;;;;5004461;28;20124;-70
2021/12/03 11:35:37;;;;;;;4.57;2.20;;;4.30;99.90;;;;;;5016987;28;20499;-70
2021/12/03 12:14:31;;;;;;;10.10;3.35;;;4.40;99.90;;;;;;5014118;28;20080;-71
2021/12/03 12:24:57;;;;;;;11.18;3.40;;;4.40;99.90;;;;;;5002494;28;20057;-71
2021/12/03 12:58:30;;;;;;;6.53;4.00;;;4.40;99.90;;;;;;5008974;28;20503;-71
2021/12/03 14:00:46;;;;;;;8.95;4.03;;;4.80;99.90;;;;;;5005060;28;20064;-72
2021/12/03 14:08:57;;;;;;;10.50;2.80;;;4.80;99.90;;;;;;5006418;28;20064;-72
2021/12/03 14:14:52;;;;;;;6.90;2.78;;;4.80;99.90;;;;;;5003824;28;20132;-72
2021/12/03 14:20:59;;;;;;;6.55;2.70;;;4.90;99.90;;;;;;5020204;28;20438;-72
2021/12/03 14:44:35;;;;;;;8.35;2.97;;;5.10;99.90;;;;;;5016385;28;20072;-72
2021/12/03 14:55:31;;;;;;;4.82;2.95;;;5.10;99.90;;;;;;5022310;28;20049;-72
2021/12/03 14:58:12;;;;;;;7.82;3.40;;;5.10;99.90;;;;;;4998606;28;20083;-72
2021/12/03 15:08:31;;;;;;;6.10;3.75;;;5.10;99.90;;;;;;5001939;28;20081;-72
2021/12/03 15:18:53;;;;;;;8.15;4.30;;;5.00;99.90;;;;;;5012873;28;20049;-73
2021/12/03 15:27:04;;;;;;;9.48;4.80;;;5.00;99.90;;;;;;4967171;28;20069;-72
2021/12/03 15:35:20;;;;;;;9.93;5.05;;;5.00;99.90;;;;;;5020160;28;20045;-72
2021/12/03 15:38:01;;;;;;;9.98;5.00;;;4.90;99.90;;;;;;4986875;28;20368;-72
2021/12/03 16:04:53;;;;;;;9.02;6.05;;;4.80;99.90;;;;;;5020050;28;20042;-72
2021/12/03 16:07:51;;;;;;;9.23;5.72;;;4.80;99.90;;;;;;5026909;28;20060;-71
2021/12/03 16:13:04;;;;;;;11.27;6.53;;;4.80;99.90;;;;;;5005545;28;20144;-71
2021/12/03 16:23:19;;;;;;;10.07;6.20;;;4.80;99.90;;;;;;5007848;28;20156;-70
2021/12/03 16:53:12;;;;;;;8.85;5.93;;;4.80;99.90;;;;;;5000377;28;20491;-70
2021/12/03 16:55:38;;;;;;;11.20;6.70;;;4.80;99.90;;;;;;5014391;28;20049;-71
2021/12/03 16:58:03;;;;;;;9.10;6.10;;;4.80;99.90;;;;;;5002241;28;20045;-71
2021/12/03 17:00:36;;;;;;;11.53;6.63;;;4.80;99.90;;;;;;5014149;28;20132;-70
2021/12/03 17:08:43;;;;;;;11.27;7.13;;;4.80;99.90;;;;;;4996165;28;20058;-71
2021/12/03 17:44:16;;;;;;;10.27;6.93;;;4.90;99.90;;;;;;5013472;28;20053;-71
2021/12/03 17:58:32;;;;;;;13.10;8.13;;;5.00;99.90;;;;;;5016294;28;20644;-71
2021/12/03 18:01:05;;;;;;;12.82;8.18;;;5.00;99.90;;;;;;5001059;28;20120;-70
2021/12/03 18:03:44;;;;;;;13.75;8.40;;;5.00;99.90;;;;;;5015399;28;20045;-71
2021/12/03 18:47:15;;;;;;;16.83;9.50;;;5.10;99.90;;;;;;5021708;28;20144;-74
2021/12/03 18:50:10;;;;;;;17.83;10.48;;;5.10;99.90;;;;;;5018993;28;20103;-73
2021/12/03 18:52:52;;;;;;;17.02;10.35;;;5.10;99.90;;;;;;5042381;28;20171;-73
2021/12/03 18:57:56;;;;;;;19.75;11.13;;;5.20;99.90;;;;;;5028426;28;20053;-73
2021/12/03 19:00:27;;;;;;;20.80;11.07;;;5.20;99.90;;;;;;5009217;28;20051;-73
2021/12/03 19:02:55;;;;;;;19.83;12.10;;;5.20;99.90;;;;;;5025785;28;20053;-73
2021/12/03 19:05:50;;;;;;;22.15;14.35;;;5.10;99.90;;;;;;5025853;28;20057;-73
2021/12/03 19:08:19;;;;;;;19.67;12.30;;;5.10;99.90;;;;;;5028564;28;20049;-73
2021/12/03 19:10:49;;;;;;;22.60;13.23;;;5.10;99.90;;;;;;5023193;28;20056;-74
2021/12/03 19:13:21;;;;;;;21.63;12.68;;;5.20;99.90;;;;;;5024222;28;20045;-73
2021/12/03 19:15:49;;;;;;;23.23;13.18;;;5.20;99.90;;;;;;5003315;28;20037;-73
2021/12/03 19:18:15;;;;;;;23.42;13.10;;;5.10;99.90;;;;;;5017240;28;20041;-73
2021/12/03 19:20:43;;;;;;;22.23;12.50;;;5.20;99.90;;;;;;5014667;28;20052;-73
2021/12/03 19:23:09;;;;;;;24.15;13.13;;;5.20;99.90;;;;;;5044515;28;20084;-74
2021/12/03 19:25:38;;;;;;;22.53;13.77;;;5.20;99.90;;;;;;5028297;28;20055;-74
2021/12/03 19:28:06;;;;;;;25.67;14.52;;;5.20;99.90;;;;;;5028030;28;20041;-73
2021/12/03 19:30:31;;;;;;;25.80;14.20;;;5.20;99.90;;;;;;5023180;28;20124;-74
2021/12/03 19:32:58;;;;;;;25.77;14.77;;;5.20;99.90;;;;;;5030160;28;20194;-74
2021/12/03 19:35:25;;;;;;;24.15;13.45;;;5.20;99.90;;;;;;5026512;28;20052;-74
2021/12/03 19:37:53;;;;;;;27.95;15.68;;;5.20;99.90;;;;;;5041675;28;20049;-73
2021/12/03 19:40:20;;;;;;;27.00;14.57;;;5.20;99.90;;;;;;5027134;28;20053;-74
2021/12/03 19:43:31;;;;;;;33.20;14.93;;;5.20;99.90;;;;;;5021115;28;20055;-73
2021/12/03 19:45:37;;;;;;;27.10;14.25;;;5.20;99.90;;;;;;5011108;28;20080;-74
2021/12/03 19:48:11;;;;;;;30.33;15.80;;;5.20;99.90;;;;;;5025585;28;20123;-73
2021/12/03 19:50:45;;;;;;;26.90;15.25;;;5.20;99.90;;;;;;5038713;28;20225;-74
2021/12/03 19:53:13;;;;;;;27.65;14.82;;;5.20;99.90;;;;;;5007291;28;20044;-74
2021/12/03 19:55:40;;;;;;;30.50;16.00;;;5.30;99.90;;;;;;5020461;28;20037;-73
2021/12/03 19:58:08;;;;;;;29.25;16.70;;;5.30;99.90;;;;;;5019514;28;20040;-74
2021/12/03 20:00:34;;;;;;;28.77;16.73;;;5.20;99.90;;;;;;5041927;28;20065;-74
2021/12/03 20:03:00;;;;;;;30.85;15.75;;;5.30;99.90;;;;;;5020211;28;20124;-74
2021/12/03 20:05:25;;;;;;;30.48;16.45;;;5.30;99.90;;;;;;5042400;28;20544;-73
2021/12/03 20:07:53;;;;;;;28.47;15.53;;;5.30;99.90;;;;;;5024212;28;20115;-73
2021/12/03 20:10:21;;;;;;;31.52;15.40;;;5.30;99.90;;;;;;5014123;28;20116;-74
2021/12/03 20:12:48;;;;;;;29.83;15.00;;;5.30;99.90;;;;;;5025173;28;20112;-73
2021/12/03 20:15:22;;;;;;;28.33;15.95;;;5.30;99.90;;;;;;5028709;28;20116;-73
2021/12/03 20:17:56;;;;;;;30.23;15.82;;;5.30;99.90;;;;;;5028245;28;20037;-73